createdAt,value
2019-05-30T00:01:54.113Z,99.90
2019-05-30T00:04:22.832Z,99.90
2019-05-30T00:06:51.233Z,99.90
2019-05-30T00:09:19.748Z,99.90
2019-05-30T00:11:48.329Z,99.90
2019-05-30T00:14:16.952Z,99.90
2019-05-30T00:16:45.355Z,99.90
2019-05-30T00:19:13.763Z,99.90
2019-05-30T00:21:42.237Z,99.90
2019-05-30T00:24:10.662Z,99.90
2019-05-30T00:26:39.073Z,99.90
2019-05-30T00:29:07.475Z,99.90
2019-05-30T00:31:35.912Z,99.90
2019-05-30T00:34:04.384Z,99.90
2019-05-30T00:36:32.823Z,99.90
2019-05-30T00:39:01.883Z,99.90
2019-05-30T00:41:30.516Z,99.90
2019-05-30T00:43:59.936Z,99.90
2019-05-30T00:46:28.631Z,99.90
2019-05-30T00:48:57.969Z,99.90
2019-05-30T00:51:26.995Z,99.90
2019-05-30T00:53:56.464Z,99.90
2019-05-30T00:56:24.998Z,99.90
2019-05-30T00:58:53.414Z,99.90
2019-05-30T01:01:21.866Z,99.90
2019-05-30T01:03:50.290Z,99.90
2019-05-30T01:06:18.757Z,99.90
2019-05-30T01:08:47.185Z,99.90
2019-05-30T01:11:15.607Z,99.90
2019-05-30T01:13:44.027Z,99.90
2019-05-30T01:16:14.704Z,99.90
2019-05-30T01:18:43.129Z,99.90
2019-05-30T01:21:11.599Z,99.90
2019-05-30T01:23:41.668Z,99.90
2019-05-30T01:26:10.148Z,99.90
2019-05-30T01:28:38.559Z,99.90
2019-05-30T01:31:10.130Z,99.90
2019-05-30T01:33:37.128Z,99.90
2019-05-30T01:36:05.849Z,99.90
2019-05-30T01:38:34.492Z,99.90
2019-05-30T01:41:03.975Z,99.90
2019-05-30T01:43:32.543Z,99.90
2019-05-30T01:46:02.037Z,99.90
2019-05-30T01:48:30.664Z,99.90
2019-05-30T01:51:00.230Z,99.90
2019-05-30T01:53:28.881Z,99.90
2019-05-30T01:55:58.482Z,99.90
2019-05-30T01:58:26.964Z,99.90
2019-05-30T02:00:55.382Z,99.90
2019-05-30T02:03:23.784Z,99.90
2019-05-30T02:05:52.196Z,99.90
2019-05-30T02:08:20.604Z,99.90
2019-05-30T02:10:49.027Z,99.90
2019-05-30T02:13:17.628Z,99.90
2019-05-30T02:15:46.125Z,99.90
2019-05-30T02:18:14.533Z,99.90
2019-05-30T02:20:42.953Z,99.90
2019-05-30T02:23:11.617Z,99.90
2019-05-30T02:25:40.156Z,99.90
2019-05-30T02:28:08.551Z,99.90
2019-05-30T02:30:36.961Z,99.90
2019-05-30T02:33:07.086Z,99.90
2019-05-30T02:35:35.512Z,99.90
2019-05-30T02:38:05.215Z,99.90
2019-05-30T02:40:33.983Z,99.90
2019-05-30T02:43:03.622Z,99.90
2019-05-30T02:45:32.828Z,99.90
2019-05-30T02:48:01.401Z,99.90
2019-05-30T02:50:31.349Z,99.90
2019-05-30T02:53:01.169Z,99.90
2019-05-30T02:55:29.784Z,99.90
2019-05-30T02:57:58.316Z,99.90
2019-05-30T03:00:35.041Z,99.90
2019-05-30T03:03:04.439Z,99.90
2019-05-30T03:05:35.020Z,99.90
2019-05-30T03:08:04.884Z,99.90
2019-05-30T03:10:33.882Z,99.90
2019-05-30T03:13:03.891Z,99.90
2019-05-30T03:15:34.304Z,99.90
2019-05-30T03:18:04.465Z,99.90
2019-05-30T03:20:33.116Z,99.90
2019-05-30T03:23:03.220Z,99.90
2019-05-30T03:25:31.836Z,99.90
2019-05-30T03:28:00.264Z,99.90
2019-05-30T03:30:30.067Z,99.90
2019-05-30T03:33:06.664Z,99.90
2019-05-30T03:35:32.854Z,99.90
2019-05-30T03:37:59.303Z,99.90
2019-05-30T03:40:29.847Z,99.90
2019-05-30T03:42:58.205Z,99.90
2019-05-30T03:45:27.277Z,99.90
2019-05-30T03:47:58.778Z,99.90
2019-05-30T03:50:29.817Z,99.90
2019-05-30T03:52:59.769Z,99.90
2019-05-30T03:55:31.621Z,99.90
2019-05-30T03:58:28.925Z,99.90
2019-05-30T04:01:00.444Z,99.90
2019-05-30T04:03:49.741Z,99.90
2019-05-30T04:06:26.946Z,99.90
2019-05-30T04:08:58.453Z,99.90
2019-05-30T04:11:39.180Z,99.90
2019-05-30T04:14:11.505Z,99.90
2019-05-30T04:16:41.069Z,99.90
2019-05-30T04:19:09.973Z,99.90
2019-05-30T04:21:38.500Z,99.90
2019-05-30T04:24:08.031Z,99.90
2019-05-30T04:26:37.634Z,99.90
2019-05-30T04:29:07.878Z,99.90
2019-05-30T04:31:36.215Z,99.90
2019-05-30T04:34:04.781Z,99.90
2019-05-30T04:36:33.281Z,99.90
2019-05-30T04:39:01.722Z,99.90
2019-05-30T04:41:30.136Z,99.90
2019-05-30T04:43:58.572Z,99.90
2019-05-30T04:46:27.128Z,99.90
2019-05-30T04:48:55.702Z,99.90
2019-05-30T04:51:24.132Z,99.90
2019-05-30T04:53:52.572Z,99.90
2019-05-30T04:56:21.958Z,99.90
2019-05-30T04:58:50.827Z,99.90
2019-05-30T05:01:20.141Z,99.90
2019-05-30T05:03:49.508Z,99.90
2019-05-30T05:06:18.139Z,99.90
2019-05-30T05:08:47.959Z,99.90
2019-05-30T05:11:20.354Z,99.90
2019-05-30T05:13:46.544Z,99.90
2019-05-30T05:16:29.394Z,99.90
2019-05-30T05:18:45.364Z,99.90
2019-05-30T05:21:14.697Z,99.90
2019-05-30T05:23:43.242Z,99.90
2019-05-30T05:26:11.672Z,99.90
2019-05-30T05:28:40.094Z,99.90
2019-05-30T05:31:08.557Z,99.90
2019-05-30T05:33:36.988Z,99.90
2019-05-30T05:36:05.429Z,99.90
2019-05-30T05:38:33.867Z,99.90
2019-05-30T05:41:02.441Z,99.90
2019-05-30T05:43:31.008Z,99.90
2019-05-30T05:45:59.457Z,99.90
2019-05-30T05:48:28.819Z,99.90
2019-05-30T05:50:57.336Z,99.90
2019-05-30T05:53:25.782Z,99.90
2019-05-30T05:55:54.212Z,99.90
2019-05-30T05:58:23.911Z,99.90
2019-05-30T06:00:52.961Z,99.90
2019-05-30T06:03:22.247Z,99.90
2019-05-30T06:05:53.422Z,99.90
2019-05-30T06:08:21.470Z,99.90
2019-05-30T06:10:50.068Z,99.90
2019-05-30T06:13:18.692Z,99.90
2019-05-30T06:15:47.212Z,99.90
2019-05-30T06:18:15.653Z,99.90
2019-05-30T06:20:44.086Z,99.90
2019-05-30T06:23:12.504Z,99.90
2019-05-30T06:25:40.942Z,99.90
2019-05-30T06:28:09.376Z,99.90
2019-05-30T06:30:37.815Z,99.90
2019-05-30T06:33:06.328Z,99.90
2019-05-30T06:35:34.953Z,99.90
2019-05-30T06:38:03.519Z,99.90
2019-05-30T06:40:32.321Z,99.90
2019-05-30T06:43:00.868Z,99.90
2019-05-30T06:45:30.312Z,99.90
2019-05-30T06:47:59.012Z,99.90
2019-05-30T06:50:29.054Z,99.90
2019-05-30T06:52:57.663Z,99.90
2019-05-30T06:55:27.303Z,99.90
2019-05-30T06:57:56.079Z,99.90
2019-05-30T07:00:26.487Z,99.90
2019-05-30T07:02:55.258Z,99.90
2019-05-30T07:05:25.488Z,99.90
2019-05-30T07:07:54.148Z,99.90
2019-05-30T07:10:23.148Z,99.90
2019-05-30T07:12:51.655Z,99.90
2019-05-30T07:15:20.724Z,99.90
2019-05-30T07:17:49.249Z,99.90
2019-05-30T07:20:17.828Z,99.90
2019-05-30T07:22:46.244Z,99.90
2019-05-30T07:25:15.725Z,99.90
2019-05-30T07:27:44.186Z,99.90
2019-05-30T07:30:13.284Z,99.90
2019-05-30T07:32:41.772Z,99.90
2019-05-30T07:35:11.160Z,99.90
2019-05-30T07:37:39.588Z,99.90
2019-05-30T07:40:10.187Z,99.90
2019-05-30T07:42:38.681Z,99.90
2019-05-30T07:45:11.656Z,99.90
2019-05-30T07:47:40.364Z,99.90
2019-05-30T07:50:10.334Z,99.90
2019-05-30T07:52:39.118Z,99.90
2019-05-30T07:55:10.890Z,99.90
2019-05-30T07:57:41.300Z,99.90
2019-05-30T08:00:12.053Z,99.90
2019-05-30T08:02:40.681Z,99.90
2019-05-30T08:05:22.881Z,99.90
2019-05-30T08:07:39.582Z,99.90
2019-05-30T08:10:09.043Z,99.90
2019-05-30T08:12:38.375Z,99.90
2019-05-30T08:15:08.784Z,99.90
2019-05-30T08:17:37.876Z,99.90
2019-05-30T08:20:08.957Z,99.90
2019-05-30T08:22:38.331Z,99.90
2019-05-30T08:25:07.564Z,99.90
2019-05-30T08:27:36.494Z,99.90
2019-05-30T08:30:07.561Z,99.90
2019-05-30T08:32:36.957Z,99.90
2019-05-30T08:35:08.391Z,99.90
2019-05-30T08:37:37.327Z,99.90
2019-05-30T08:40:07.595Z,99.90
2019-05-30T08:42:36.021Z,99.90
2019-05-30T08:45:09.660Z,99.90
2019-05-30T08:47:36.522Z,99.90
2019-05-30T08:50:06.600Z,99.90
2019-05-30T08:52:36.351Z,99.90
2019-05-30T08:55:07.160Z,99.90
2019-05-30T08:57:36.622Z,99.90
2019-05-30T09:00:09.826Z,99.90
2019-05-30T09:02:38.843Z,99.90
2019-05-30T09:05:08.508Z,99.90
2019-05-30T09:07:38.098Z,99.90
2019-05-30T09:10:08.433Z,99.90
2019-05-30T09:12:38.418Z,99.90
2019-05-30T09:15:09.713Z,99.90
2019-05-30T09:17:39.333Z,99.90
2019-05-30T09:20:09.411Z,99.90
2019-05-30T09:22:39.415Z,99.90
2019-05-30T09:25:15.725Z,99.90
2019-05-30T09:27:44.749Z,99.90
2019-05-30T09:30:15.302Z,99.90
2019-05-30T09:32:45.085Z,99.90
2019-05-30T09:35:14.491Z,99.90
2019-05-30T09:37:44.057Z,99.90
2019-05-30T09:40:14.225Z,99.90
2019-05-30T09:42:44.526Z,99.90
2019-05-30T09:45:15.213Z,99.90
2019-05-30T09:47:45.310Z,99.90
2019-05-30T09:50:14.328Z,99.90
2019-05-30T09:52:43.559Z,99.90
2019-05-30T09:55:13.274Z,99.90
2019-05-30T09:57:42.974Z,99.90
2019-05-30T10:00:17.602Z,99.90
2019-05-30T10:02:46.744Z,99.90
2019-05-30T10:05:17.293Z,99.90
2019-05-30T10:07:47.287Z,99.90
2019-05-30T10:10:16.838Z,99.90
2019-05-30T10:12:46.763Z,99.90
2019-05-30T10:15:16.011Z,99.90
2019-05-30T10:17:45.920Z,99.90
2019-05-30T10:20:15.441Z,99.90
2019-05-30T10:22:44.735Z,99.90
2019-05-30T10:25:14.226Z,99.90
2019-05-30T10:27:42.657Z,99.90
2019-05-30T10:30:11.821Z,99.90
2019-05-30T10:32:40.257Z,99.90
2019-05-30T10:35:09.717Z,99.90
2019-05-30T10:37:38.145Z,99.90
2019-05-30T10:40:10.320Z,99.90
2019-05-30T10:42:38.757Z,99.90
2019-05-30T10:45:11.556Z,99.90
2019-05-30T10:47:40.085Z,99.90
2019-05-30T10:50:10.701Z,99.90
2019-05-30T10:52:39.194Z,99.90
2019-05-30T10:55:09.160Z,99.90
2019-05-30T10:57:37.583Z,99.90
2019-05-30T11:00:10.588Z,99.90
2019-05-30T11:02:39.773Z,99.90
2019-05-30T11:05:09.456Z,99.90
2019-05-30T11:08:05.834Z,99.90
2019-05-30T11:10:42.857Z,99.90
2019-05-30T11:13:16.032Z,99.90
2019-05-30T11:15:44.550Z,99.90
2019-05-30T11:18:13.725Z,99.90
2019-05-30T11:20:42.144Z,99.90
2019-05-30T11:23:10.829Z,99.90
2019-05-30T11:25:39.369Z,99.90
2019-05-30T11:28:08.638Z,98.90
2019-05-30T11:30:37.210Z,99.90
2019-05-30T11:33:06.203Z,99.90
2019-05-30T11:35:35.139Z,99.90
2019-05-30T11:38:03.758Z,99.90
2019-05-30T11:40:32.913Z,99.90
2019-05-30T11:43:01.549Z,99.90
2019-05-30T11:45:30.116Z,99.90
2019-05-30T11:47:59.914Z,99.90
2019-05-30T11:50:28.853Z,99.90
2019-05-30T11:52:57.953Z,99.90
2019-05-30T11:55:26.507Z,99.90
2019-05-30T11:57:56.136Z,99.90
2019-05-30T12:00:25.755Z,99.90
2019-05-30T12:02:54.305Z,99.90
2019-05-30T12:05:24.276Z,99.90
2019-05-30T12:07:52.894Z,99.90
2019-05-30T12:10:21.662Z,99.90
2019-05-30T12:12:51.195Z,99.90
2019-05-30T12:15:20.219Z,99.90
2019-05-30T12:17:48.696Z,99.90
2019-05-30T12:20:19.090Z,99.90
2019-05-30T12:22:47.502Z,99.90
2019-05-30T12:25:16.072Z,99.90
2019-05-30T12:27:44.506Z,99.90
2019-05-30T12:30:13.797Z,99.90
2019-05-30T12:32:42.229Z,99.90
2019-05-30T12:35:12.668Z,99.90
2019-05-30T12:37:54.156Z,99.90
2019-05-30T12:40:12.791Z,99.90
2019-05-30T12:42:41.216Z,99.90
2019-05-30T12:45:12.108Z,99.90
2019-05-30T12:47:40.529Z,99.90
2019-05-30T12:50:10.374Z,99.90
2019-05-30T12:52:39.047Z,99.90
2019-05-30T12:55:08.096Z,99.90
2019-05-30T12:57:36.881Z,99.90
2019-05-30T13:00:17.525Z,99.90
2019-05-30T13:02:40.817Z,99.90
2019-05-30T13:05:09.964Z,99.90
2019-05-30T13:07:38.407Z,99.90
2019-05-30T13:10:08.273Z,99.90
2019-05-30T13:12:36.844Z,99.90
2019-05-30T13:15:09.541Z,99.90
2019-05-30T13:17:38.057Z,99.90
2019-05-30T13:20:09.021Z,96.60
2019-05-30T13:22:37.534Z,98.20
2019-05-30T13:25:11.326Z,99.90
2019-05-30T13:27:39.809Z,99.90
2019-05-30T13:30:10.441Z,99.90
2019-05-30T13:32:38.883Z,99.40
2019-05-30T13:35:07.956Z,99.90
2019-05-30T13:37:36.638Z,99.90
2019-05-30T13:40:24.118Z,99.90
2019-05-30T13:42:41.047Z,99.50
2019-05-30T13:45:10.784Z,99.90
2019-05-30T13:47:39.283Z,99.90
2019-05-30T13:50:13.141Z,99.90
2019-05-30T13:52:39.270Z,99.90
2019-05-30T13:55:09.865Z,99.90
2019-05-30T13:57:38.682Z,99.90
2019-05-30T14:00:10.754Z,99.90
2019-05-30T14:02:39.562Z,99.90
2019-05-30T14:05:08.500Z,99.90
2019-05-30T14:07:36.946Z,99.90
2019-05-30T14:10:08.532Z,99.90
2019-05-30T14:12:37.466Z,99.90
2019-05-30T14:15:13.741Z,99.30
2019-05-30T14:17:40.381Z,99.90
2019-05-30T14:20:11.249Z,99.90
2019-05-30T14:22:40.034Z,99.90
2019-05-30T14:25:09.809Z,99.90
2019-05-30T14:27:38.641Z,99.90
2019-05-30T14:30:08.912Z,99.90
2019-05-30T14:32:37.680Z,99.90
2019-05-30T14:35:11.764Z,99.90
2019-05-30T14:37:39.790Z,99.90
2019-05-30T14:40:11.103Z,99.90
2019-05-30T14:42:39.886Z,99.90
2019-05-30T14:45:14.665Z,99.90
2019-05-30T14:47:43.221Z,98.40
2019-05-30T14:50:13.193Z,99.70
2019-05-30T14:52:41.893Z,99.70
2019-05-30T14:55:11.187Z,99.90
2019-05-30T14:57:39.824Z,99.30
2019-05-30T15:00:11.336Z,99.90
2019-05-30T15:02:39.877Z,97.30
2019-05-30T15:05:09.375Z,98.30
2019-05-30T15:07:38.231Z,97.60
2019-05-30T15:10:08.934Z,99.90
2019-05-30T15:12:37.496Z,98.30
2019-05-30T15:15:08.022Z,99.90
2019-05-30T15:17:37.320Z,99.90
2019-05-30T15:20:12.127Z,99.00
2019-05-30T15:22:41.024Z,99.90
2019-05-30T15:25:10.195Z,99.90
2019-05-30T15:27:38.690Z,98.50
2019-05-30T15:30:10.528Z,99.50
2019-05-30T15:32:39.297Z,99.50
2019-05-30T15:35:08.763Z,99.90
2019-05-30T15:37:40.562Z,99.90
2019-05-30T15:40:08.869Z,99.90
2019-05-30T15:42:37.588Z,99.90
2019-05-30T15:45:08.140Z,99.90
2019-05-30T15:47:36.746Z,99.90
2019-05-30T15:50:06.298Z,99.90
2019-05-30T15:52:34.797Z,99.90
2019-05-30T15:55:03.297Z,99.90
2019-05-30T15:57:31.725Z,99.90
2019-05-30T16:00:00.156Z,99.70
2019-05-30T16:02:28.589Z,99.90
2019-05-30T16:04:57.011Z,99.80
2019-05-30T16:07:25.445Z,96.90
2019-05-30T16:09:53.936Z,99.90
2019-05-30T16:12:22.373Z,98.40
2019-05-30T16:14:50.831Z,98.70
2019-05-30T16:17:19.680Z,99.30
2019-05-30T16:19:48.111Z,96.20
2019-05-30T16:22:16.559Z,94.20
2019-05-30T16:24:44.965Z,93.30
2019-05-30T16:27:13.673Z,93.40
2019-05-30T16:29:42.918Z,91.60
2019-05-30T16:32:11.442Z,89.70
2019-05-30T16:34:39.874Z,88.80
2019-05-30T16:37:08.472Z,90.80
2019-05-30T16:39:37.061Z,90.30
2019-05-30T16:42:05.486Z,90.10
2019-05-30T16:44:33.913Z,90.60
2019-05-30T16:47:02.332Z,90.60
2019-05-30T16:49:30.761Z,90.50
2019-05-30T16:51:59.180Z,90.70
2019-05-30T16:54:27.637Z,91.00
2019-05-30T16:56:56.118Z,91.10
2019-05-30T16:59:24.558Z,90.20
2019-05-30T17:01:57.696Z,85.40
2019-05-30T17:04:23.189Z,78.70
2019-05-30T17:06:51.610Z,64.80
2019-05-30T17:09:21.492Z,57.70
2019-05-30T17:11:50.227Z,51.40
2019-05-30T17:14:19.728Z,47.50
2019-05-30T17:16:48.369Z,45.10
2019-05-30T17:19:18.211Z,45.50
2019-05-30T17:21:46.677Z,45.60
2019-05-30T17:24:15.137Z,47.70
2019-05-30T17:26:43.568Z,48.60
2019-05-30T17:29:12.016Z,52.20
2019-05-30T17:31:40.467Z,54.10
2019-05-30T17:34:08.960Z,54.80
2019-05-30T17:36:37.402Z,53.40
2019-05-30T17:39:08.081Z,53.70
2019-05-30T17:41:36.515Z,52.50
2019-05-30T17:44:05.138Z,51.30
2019-05-30T17:46:33.580Z,48.40
2019-05-30T17:49:02.217Z,45.80
2019-05-30T17:51:30.660Z,47.20
2019-05-30T17:53:59.178Z,44.60
2019-05-30T17:56:28.223Z,43.50
2019-05-30T17:58:56.846Z,42.60
2019-05-30T18:01:26.321Z,42.60
2019-05-30T18:03:54.908Z,42.70
2019-05-30T18:06:24.364Z,45.90
2019-05-30T18:08:52.942Z,48.80
2019-05-30T18:11:21.377Z,51.70
2019-05-30T18:13:49.883Z,47.50
2019-05-30T18:16:18.388Z,49.80
2019-05-30T18:18:46.841Z,50.30
2019-05-30T18:21:15.455Z,54.40
2019-05-30T18:23:44.883Z,56.40
2019-05-30T18:26:13.413Z,53.90
2019-05-30T18:28:41.841Z,61.90
2019-05-30T18:31:10.356Z,62.70
2019-05-30T18:33:38.789Z,67.00
2019-05-30T18:36:07.217Z,63.60
2019-05-30T18:38:35.652Z,74.60
2019-05-30T18:41:11.372Z,71.90
2019-05-30T18:43:34.424Z,79.00
2019-05-30T18:46:02.919Z,88.30
2019-05-30T18:48:31.607Z,92.90
2019-05-30T18:51:00.155Z,91.60
2019-05-30T18:53:28.577Z,91.60
2019-05-30T18:55:57.008Z,97.20
2019-05-30T18:58:25.437Z,99.90
2019-05-30T19:00:53.872Z,99.90
2019-05-30T19:03:22.309Z,99.90
2019-05-30T19:05:50.796Z,99.90
2019-05-30T19:08:19.226Z,99.90
2019-05-30T19:10:47.818Z,99.90
2019-05-30T19:13:16.416Z,99.90
2019-05-30T19:15:44.856Z,99.90
2019-05-30T19:18:13.392Z,99.90
2019-05-30T19:20:41.852Z,99.90
2019-05-30T19:23:10.301Z,99.90
2019-05-30T19:25:38.728Z,99.90
2019-05-30T19:28:07.295Z,99.90
2019-05-30T19:30:36.837Z,99.90
2019-05-30T19:33:05.542Z,99.90
2019-05-30T19:35:35.187Z,99.90
2019-05-30T19:38:04.001Z,99.90
2019-05-30T19:40:33.560Z,99.90
2019-05-30T19:43:02.249Z,99.90
2019-05-30T19:45:31.896Z,99.90
2019-05-30T19:48:00.576Z,99.90
2019-05-30T19:50:29.010Z,99.90
2019-05-30T19:52:57.442Z,99.90
2019-05-30T19:55:25.876Z,99.90
2019-05-30T19:57:54.311Z,99.90
2019-05-30T20:00:22.857Z,99.90
2019-05-30T20:02:51.305Z,99.90
2019-05-30T20:05:19.805Z,99.90
2019-05-30T20:07:48.235Z,99.90
2019-05-30T20:10:16.904Z,99.90
2019-05-30T20:12:45.324Z,99.90
2019-05-30T20:15:14.402Z,99.90
2019-05-30T20:17:42.824Z,99.90
2019-05-30T20:20:11.607Z,99.90
2019-05-30T20:22:40.254Z,99.90
2019-05-30T20:25:10.084Z,99.90
2019-05-30T20:27:38.956Z,99.90
2019-05-30T20:30:10.356Z,99.90
2019-05-30T20:32:38.995Z,99.90
2019-05-30T20:35:08.220Z,99.90
2019-05-30T20:37:36.897Z,99.90
2019-05-30T20:40:08.323Z,99.90
2019-05-30T20:42:36.875Z,99.90
2019-05-30T20:45:09.899Z,99.90
2019-05-30T20:47:39.380Z,99.90
2019-05-30T20:50:09.596Z,99.90
2019-05-30T20:52:40.979Z,99.90
2019-05-30T20:55:08.331Z,99.90
2019-05-30T20:57:36.760Z,99.90
2019-05-30T21:00:08.260Z,99.90
2019-05-30T21:02:39.005Z,99.90
2019-05-30T21:05:08.217Z,99.90
2019-05-30T21:07:37.801Z,99.90
2019-05-30T21:10:07.138Z,99.90
2019-05-30T21:12:39.355Z,99.90
2019-05-30T21:15:09.534Z,99.90
2019-05-30T21:17:38.060Z,99.90
2019-05-30T21:20:11.154Z,99.90
2019-05-30T21:22:38.152Z,99.90
2019-05-30T21:25:08.220Z,99.90
2019-05-30T21:27:37.012Z,99.90
2019-05-30T21:30:07.380Z,99.90
2019-05-30T21:32:37.330Z,99.90
2019-05-30T21:35:07.333Z,99.90
2019-05-30T21:37:37.514Z,99.90
2019-05-30T21:40:07.112Z,99.90
2019-05-30T21:42:35.599Z,99.90
2019-05-30T21:45:07.127Z,99.90
2019-05-30T21:47:35.553Z,99.90
2019-05-30T21:50:05.524Z,99.90
2019-05-30T21:52:33.952Z,99.90
2019-05-30T21:55:03.654Z,99.90
2019-05-30T21:57:32.292Z,99.90
2019-05-30T22:00:00.765Z,99.90
2019-05-30T22:02:29.232Z,99.90
2019-05-30T22:04:57.664Z,99.90
2019-05-30T22:07:26.088Z,99.90
2019-05-30T22:09:54.524Z,99.90
2019-05-30T22:12:22.951Z,99.90
2019-05-30T22:14:51.984Z,99.90
2019-05-30T22:17:20.512Z,99.90
2019-05-30T22:19:49.988Z,99.90
2019-05-30T22:22:18.740Z,99.90
2019-05-30T22:24:48.405Z,99.90
2019-05-30T22:27:17.071Z,99.90
2019-05-30T22:29:46.394Z,99.90
2019-05-30T22:32:14.907Z,99.90
2019-05-30T22:34:44.616Z,99.90
2019-05-30T22:37:13.208Z,99.90
2019-05-30T22:39:42.670Z,99.90
2019-05-30T22:42:11.454Z,99.90
2019-05-30T22:44:39.940Z,99.90
2019-05-30T22:47:08.360Z,99.90
2019-05-30T22:49:36.878Z,99.90
2019-05-30T22:52:05.306Z,99.90
2019-05-30T22:54:33.728Z,99.90
2019-05-30T22:57:02.169Z,99.90
2019-05-30T22:59:30.664Z,99.90
2019-05-30T23:01:59.248Z,99.90
2019-05-30T23:04:27.699Z,99.90
2019-05-30T23:06:56.474Z,99.90
2019-05-30T23:09:24.964Z,99.90
2019-05-30T23:11:53.870Z,99.90
2019-05-30T23:14:22.484Z,99.90
2019-05-30T23:16:52.213Z,99.90
2019-05-30T23:19:20.904Z,99.90
2019-05-30T23:21:49.337Z,99.90
2019-05-30T23:24:17.784Z,99.90
2019-05-30T23:26:47.323Z,99.90
2019-05-30T23:29:15.987Z,99.90
2019-05-30T23:31:44.487Z,99.90
2019-05-30T23:34:12.996Z,99.90
2019-05-30T23:36:41.430Z,99.90
2019-05-30T23:39:09.941Z,99.90
2019-05-30T23:41:38.394Z,99.90
2019-05-30T23:44:11.409Z,99.90
2019-05-30T23:46:36.968Z,99.90
2019-05-30T23:49:05.464Z,99.90
2019-05-30T23:51:34.005Z,99.90
2019-05-30T23:54:02.435Z,99.90
2019-05-30T23:56:31.092Z,99.90
2019-05-30T23:58:59.513Z,99.90
